Time;durP1;ratioP1;P1;durP2;ratioP2;P2;SDS_P1;SDS_P2;PMS_P1;PMS_P2;Temp;Humidity;BMP_temperature;BMP_pressure;BME280_temperature;BME280_humidity;BME280_pressure;Samples;Min_cycle;Max_cycle;Signal;HPM_P1;HPM_P2
2022/11/10 00:01:03;;;;;;;10.52;2.85;;;;;;;10.26;100.00;100684.09;5038885;28;20131;-73
2022/11/10 00:03:30;;;;;;;5.85;3.00;;;;;;;10.16;100.00;100665.06;5046028;28;20053;-75
2022/11/10 00:05:56;;;;;;;9.38;3.30;;;;;;;10.32;100.00;100705.03;5047672;28;20052;-73
2022/11/10 00:08:23;;;;;;;7.32;2.80;;;;;;;10.33;100.00;100703.25;5033399;28;20080;-75
2022/11/10 00:11:00;;;;;;;7.28;2.88;;;;;;;10.33;100.00;100698.81;5030679;28;20057;-72
2022/11/10 00:13:32;;;;;;;5.55;2.95;;;;;;;10.29;100.00;100709.59;5037624;28;20041;-75
2022/11/10 00:18:46;;;;;;;9.27;3.05;;;;;;;10.25;100.00;100695.59;5042472;28;20061;-69
2022/11/10 00:21:14;;;;;;;8.30;3.20;;;;;;;10.32;100.00;100707.69;5034359;28;20068;-72
2022/11/10 00:23:41;;;;;;;8.27;2.80;;;;;;;10.14;100.00;100695.16;5046504;28;20055;-73
2022/11/10 00:26:18;;;;;;;12.55;3.40;;;;;;;10.21;100.00;100728.44;5047230;28;20076;-74
2022/11/10 00:28:45;;;;;;;9.00;2.78;;;;;;;10.16;100.00;100725.94;5050724;28;20056;-74
2022/11/10 00:31:12;;;;;;;6.53;2.80;;;;;;;10.17;100.00;100726.78;5038383;28;20067;-72
2022/11/10 00:33:41;;;;;;;10.00;3.17;;;;;;;10.22;100.00;100745.19;5048144;28;20069;-72
2022/11/10 00:36:08;;;;;;;9.05;3.78;;;;;;;10.01;100.00;100731.84;5042409;28;20059;-74
2022/11/10 00:38:35;;;;;;;7.38;3.03;;;;;;;10.07;100.00;100749.25;5028298;28;20116;-75
2022/11/10 00:41:02;;;;;;;11.32;3.13;;;;;;;10.08;100.00;100746.53;5025572;28;20087;-72
2022/11/10 00:43:29;;;;;;;6.50;2.97;;;;;;;10.07;100.00;100752.75;5052881;28;20207;-76
2022/11/10 00:45:56;;;;;;;7.68;3.38;;;;;;;10.05;100.00;100751.97;5033517;28;20047;-74
2022/11/10 00:48:23;;;;;;;8.95;3.13;;;;;;;10.07;100.00;100759.84;5042235;28;20045;-75
2022/11/10 00:50:50;;;;;;;6.75;2.85;;;;;;;10.03;100.00;100767.03;5033872;28;20051;-72
2022/11/10 00:53:16;;;;;;;8.85;3.20;;;;;;;10.02;100.00;100769.75;5045226;28;20077;-74
2022/11/10 00:55:43;;;;;;;5.90;2.90;;;;;;;10.00;100.00;100767.16;5044215;28;20135;-75
2022/11/10 00:58:10;;;;;;;8.40;3.22;;;;;;;9.96;100.00;100783.19;5046025;28;20041;-75
2022/11/10 01:00:37;;;;;;;11.70;3.33;;;;;;;9.95;100.00;100782.31;5032673;28;20057;-71
2022/11/10 01:03:03;;;;;;;8.70;3.33;;;;;;;9.94;100.00;100803.53;5046258;28;20048;-75
2022/11/10 01:05:30;;;;;;;10.05;3.22;;;;;;;9.91;100.00;100791.31;5038571;28;20413;-73
2022/11/10 01:08:00;;;;;;;8.68;2.95;;;;;;;9.83;100.00;100790.72;5043108;28;20053;-70
2022/11/10 01:10:27;;;;;;;7.35;2.83;;;;;;;9.87;100.00;100807.34;5033221;28;20345;-72
2022/11/10 01:12:54;;;;;;;6.95;3.65;;;;;;;9.83;100.00;100807.47;5041706;28;20045;-73
2022/11/10 01:15:21;;;;;;;7.60;2.90;;;;;;;9.88;100.00;100806.44;5037080;28;20145;-75
2022/11/10 01:17:54;;;;;;;8.90;2.97;;;;;;;9.84;100.00;100811.84;5043025;28;20053;-73
2022/11/10 01:20:21;;;;;;;9.38;2.92;;;;;;;9.86;100.00;100817.06;5031861;28;20064;-73
2022/11/10 01:22:48;;;;;;;8.45;2.72;;;;;;;9.70;100.00;100802.69;5038347;28;20048;-73
2022/11/10 01:25:15;;;;;;;10.52;3.28;;;;;;;9.80;100.00;100818.16;5037913;28;20136;-75
2022/11/10 01:27:42;;;;;;;9.32;3.28;;;;;;;9.82;100.00;100823.41;5047194;28;20128;-74
2022/11/10 01:30:09;;;;;;;9.48;3.13;;;;;;;9.85;100.00;100823.28;5041478;28;20121;-70
2022/11/10 01:32:37;;;;;;;6.38;2.65;;;;;;;9.83;100.00;100825.97;5037767;28;20132;-75
2022/11/10 01:35:04;;;;;;;8.48;2.97;;;;;;;9.79;100.00;100832.28;5037005;28;20091;-69
2022/11/10 01:37:31;;;;;;;7.90;3.28;;;;;;;9.70;100.00;100837.06;5045802;28;20126;-72
2022/11/10 01:39:57;;;;;;;10.45;3.03;;;;;;;9.61;100.00;100832.97;5039602;28;20080;-71
2022/11/10 01:42:43;;;;;;;9.43;3.40;;;;;;;9.43;100.00;100817.78;5040873;28;20448;-77
2022/11/10 01:45:50;;;;;;;13.02;3.63;;;;;;;9.47;100.00;100844.03;5026755;28;20053;-72
2022/11/10 01:48:26;;;;;;;7.32;3.05;;;;;;;9.42;100.00;100837.19;5044342;28;20151;-75
2022/11/10 01:50:53;;;;;;;6.78;2.80;;;;;;;9.35;100.00;100841.81;5042910;28;20211;-75
2022/11/10 01:53:23;;;;;;;5.82;3.10;;;;;;;9.35;100.00;100844.47;5039164;28;20144;-75
2022/11/10 01:55:52;;;;;;;12.95;3.72;;;;;;;9.35;100.00;100847.13;5024734;28;20084;-75
2022/11/10 01:58:25;;;;;;;12.45;3.13;;;;;;;9.22;100.00;100824.69;5039428;28;20132;-75
2022/11/10 02:00:53;;;;;;;7.72;2.90;;;;;;;9.34;100.00;100848.03;5044273;28;20607;-74
2022/11/10 02:03:22;;;;;;;9.85;2.85;;;;;;;9.30;100.00;100856.09;5043316;28;20069;-76
2022/11/10 02:05:50;;;;;;;9.90;3.25;;;;;;;9.28;100.00;100855.31;5032727;28;20045;-74
2022/11/10 02:08:17;;;;;;;8.77;3.50;;;;;;;9.32;100.00;100863.06;5036632;28;20826;-75
2022/11/10 02:10:44;;;;;;;11.18;3.25;;;;;;;9.37;100.00;100855.84;5047086;28;20037;-72
2022/11/10 02:13:11;;;;;;;8.52;2.90;;;;;;;9.41;100.00;100870.69;5045652;28;20073;-74
2022/11/10 02:15:38;;;;;;;8.98;3.33;;;;;;;9.32;100.00;100863.06;5028675;28;20049;-74
2022/11/10 02:18:04;;;;;;;8.95;3.60;;;;;;;9.29;100.00;100864.94;5039210;28;20067;-75
2022/11/10 02:20:31;;;;;;;8.68;2.80;;;;;;;9.32;100.00;100865.72;5042821;28;20045;-72
2022/11/10 02:22:57;;;;;;;9.13;3.33;;;;;;;9.32;100.00;100865.72;5051172;28;20656;-73
2022/11/10 02:25:29;;;;;;;7.65;3.38;;;;;;;9.29;100.00;100863.16;5036438;28;20076;-75
2022/11/10 02:27:55;;;;;;;9.07;3.30;;;;;;;9.33;100.00;100875.38;5048721;28;20072;-76
2022/11/10 02:30:22;;;;;;;9.68;3.33;;;;;;;9.35;100.00;100875.31;5045317;28;20059;-72
2022/11/10 02:32:53;;;;;;;9.20;2.83;;;;;;;9.19;100.00;100845.03;5048122;28;20045;-76
2022/11/10 02:35:19;;;;;;;9.73;3.60;;;;;;;9.30;100.00;100870.19;5037348;28;20049;-76
2022/11/10 02:37:46;;;;;;;9.65;3.55;;;;;;;9.19;100.00;100845.03;5048117;28;20083;-76
2022/11/10 02:40:12;;;;;;;7.18;3.10;;;;;;;9.22;100.00;100866.94;5049255;28;20055;-71
2022/11/10 02:42:39;;;;;;;8.32;3.53;;;;;;;9.20;100.00;100868.78;5047967;28;20156;-73
2022/11/10 02:45:07;;;;;;;9.75;3.40;;;;;;;9.18;100.00;100873.25;5040539;28;20481;-75
2022/11/10 02:47:34;;;;;;;7.03;3.17;;;;;;;9.15;100.00;100879.50;5041340;28;20054;-71
2022/11/10 02:50:01;;;;;;;13.02;3.78;;;;;;;9.07;100.00;100878.03;5046157;28;20151;-72
2022/11/10 02:52:27;;;;;;;11.88;3.75;;;;;;;9.03;100.00;100866.69;5042744;28;20052;-72
2022/11/10 02:54:54;;;;;;;9.77;3.70;;;;;;;8.88;100.00;100824.09;5035814;28;20124;-68
2022/11/10 02:57:20;;;;;;;8.18;3.20;;;;;;;9.08;100.00;100863.91;5036618;28;20068;-74
2022/11/10 02:59:47;;;;;;;8.73;3.50;;;;;;;9.05;100.00;100859.59;5036531;28;20136;-71
2022/11/10 03:02:14;;;;;;;10.93;3.53;;;;;;;9.03;100.00;100865.84;5045671;28;20127;-72
2022/11/10 03:04:41;;;;;;;12.13;3.67;;;;;;;8.99;100.00;100877.41;5039005;28;20059;-73
2022/11/10 03:07:07;;;;;;;6.10;3.40;;;;;;;8.92;100.00;100879.41;5034584;28;20524;-74
2022/11/10 03:09:34;;;;;;;9.70;3.40;;;;;;;8.88;100.00;100883.03;5040037;28;20551;-71
2022/11/10 03:12:00;;;;;;;8.80;3.58;;;;;;;8.85;100.00;100899.00;5047477;28;20046;-72
2022/11/10 03:14:27;;;;;;;15.07;4.45;;;;;;;8.79;100.00;100896.56;5041427;28;20144;-72
2022/11/10 03:16:53;;;;;;;6.93;3.10;;;;;;;8.81;100.00;100913.22;5033603;28;20049;-73
2022/11/10 03:19:20;;;;;;;10.90;3.20;;;;;;;8.75;100.00;100909.00;5041899;28;20415;-74
2022/11/10 03:21:47;;;;;;;7.85;2.70;;;;;;;8.62;100.00;100883.88;5044107;28;20053;-75
2022/11/10 03:24:13;;;;;;;7.78;3.22;;;;;;;8.74;100.00;100907.25;5043736;28;20052;-72
2022/11/10 03:26:40;;;;;;;9.15;3.67;;;;;;;8.75;100.00;100919.56;5037053;28;20107;-73
2022/11/10 03:29:06;;;;;;;10.55;3.42;;;;;;;8.70;100.00;100910.03;5043197;28;20520;-76
2022/11/10 03:31:33;;;;;;;7.95;3.30;;;;;;;8.68;100.00;100923.28;5041980;28;20516;-71
2022/11/10 03:33:59;;;;;;;10.65;3.47;;;;;;;8.67;100.00;100931.25;5046552;28;20532;-70
2022/11/10 03:36:26;;;;;;;9.65;3.75;;;;;;;8.63;100.00;100934.91;5033474;28;20055;-74
2022/11/10 03:38:53;;;;;;;11.45;3.80;;;;;;;8.64;100.00;100929.59;5036867;28;20155;-75
2022/11/10 03:41:19;;;;;;;9.63;3.60;;;;;;;8.63;100.00;100935.78;5048986;28;20512;-73
2022/11/10 03:43:47;;;;;;;11.88;3.90;;;;;;;8.62;100.00;100944.59;5046384;28;20072;-70
2022/11/10 03:46:14;;;;;;;11.43;4.07;;;;;;;8.61;100.00;100950.78;5034887;28;20074;-74
2022/11/10 03:48:41;;;;;;;9.02;3.80;;;;;;;8.58;100.00;100945.59;5042250;28;20147;-74
2022/11/10 03:51:08;;;;;;;12.07;5.18;;;;;;;8.56;100.00;100949.19;5040561;28;20501;-75
2022/11/10 03:53:34;;;;;;;11.80;5.78;;;;;;;8.39;100.00;100925.94;5045749;28;20037;-74
2022/11/10 03:56:03;;;;;;;14.13;7.15;;;;;;;8.40;100.00;100940.84;5033366;28;20522;-68
2022/11/10 03:58:30;;;;;;;21.02;10.18;;;;;;;8.49;100.00;100959.09;5045078;28;20119;-75
2022/11/10 04:00:57;;;;;;;22.42;13.30;;;;;;;8.35;100.00;100946.25;5042699;28;20127;-70
2022/11/10 04:03:24;;;;;;;26.35;15.93;;;;;;;8.42;100.00;100974.22;5033307;28;20056;-71
2022/11/10 04:16:52;;;;;;;22.10;11.05;;;;;;;8.26;100.00;100983.44;5035473;28;20052;-72
2022/11/10 04:19:19;;;;;;;20.67;10.00;;;;;;;8.11;100.00;100968.03;5045876;28;20048;-73
2022/11/10 04:21:46;;;;;;;21.55;9.85;;;;;;;8.21;100.00;100992.38;5046132;28;20048;-71
2022/11/10 04:24:12;;;;;;;16.73;8.90;;;;;;;8.19;100.00;101002.13;5049876;28;20504;-75
2022/11/10 04:26:41;;;;;;;20.55;8.52;;;;;;;8.02;100.00;100979.72;5035436;28;20041;-74
2022/11/10 04:29:10;;;;;;;20.92;7.78;;;;;;;8.15;100.00;101006.63;5047288;28;20041;-74
2022/11/10 04:31:38;;;;;;;18.63;8.07;;;;;;;8.13;100.00;100999.66;5044328;28;20091;-75
2022/11/10 04:34:07;;;;;;;18.40;7.80;;;;;;;8.16;100.00;101012.78;5038192;28;20045;-74
2022/11/10 04:36:36;;;;;;;17.25;7.88;;;;;;;8.14;100.00;101012.81;5034568;28;20047;-70
2022/11/10 04:39:05;;;;;;;15.93;7.32;;;;;;;8.12;100.00;101004.06;5047844;28;20044;-72
2022/11/10 04:41:32;;;;;;;21.70;8.93;;;;;;;8.22;100.00;100999.41;5041996;28;20041;-75
2022/11/10 04:43:59;;;;;;;18.00;9.35;;;;;;;8.24;100.00;101001.09;5043036;28;20074;-73
2022/11/10 04:46:29;;;;;;;13.55;7.55;;;;;;;8.24;100.00;101011.66;5034297;28;20140;-71
2022/11/10 04:48:56;;;;;;;16.67;6.60;;;;;;;8.30;100.00;101011.50;5042539;28;20084;-70
2022/11/10 04:51:35;;;;;;;15.68;5.90;;;;;;;8.45;100.00;101007.59;5047753;28;20175;-74
2022/11/10 04:54:02;;;;;;;12.82;5.78;;;;;;;8.43;100.00;101002.34;5042836;28;20041;-72
2022/11/10 04:56:29;;;;;;;10.10;4.63;;;;;;;8.49;100.00;101019.78;5032051;28;20147;-72
2022/11/10 04:58:56;;;;;;;12.35;4.68;;;;;;;8.51;100.00;101027.63;5039544;28;20049;-75
2022/11/10 05:01:25;;;;;;;10.98;4.82;;;;;;;8.49;100.00;101030.34;5054362;28;20139;-73
2022/11/10 05:03:53;;;;;;;11.90;4.68;;;;;;;8.55;100.00;101030.16;5044666;28;20096;-71
2022/11/10 05:06:20;;;;;;;10.90;5.00;;;;;;;8.59;100.00;101044.13;5033203;28;20049;-71
2022/11/10 05:08:47;;;;;;;12.00;4.75;;;;;;;8.41;100.00;101032.31;5044345;28;20060;-74
2022/11/10 05:11:14;;;;;;;12.05;4.90;;;;;;;8.45;100.00;101049.81;5049265;28;20045;-72
2022/11/10 05:13:41;;;;;;;13.10;4.70;;;;;;;8.41;100.00;101058.72;5048175;28;20155;-68
2022/11/10 05:16:09;;;;;;;11.88;5.00;;;;;;;8.34;100.00;101065.91;5034797;28;20469;-72
2022/11/10 05:18:36;;;;;;;13.73;5.88;;;;;;;8.28;100.00;101062.56;5043416;28;20674;-74
2022/11/10 05:21:03;;;;;;;15.63;6.43;;;;;;;8.22;100.00;101068.84;5051599;28;20048;-73
2022/11/10 05:23:39;;;;;;;14.43;6.35;;;;;;;8.19;100.00;101071.56;5042889;28;20052;-73
2022/11/10 05:26:11;;;;;;;14.45;6.10;;;;;;;8.01;100.00;101045.69;5039961;28;20053;-73
2022/11/10 05:28:39;;;;;;;13.52;6.30;;;;;;;8.12;100.00;101069.16;5034879;28;20279;-71
2022/11/10 05:31:06;;;;;;;13.40;6.25;;;;;;;7.98;100.00;101067.75;5040660;28;20040;-72
2022/11/10 05:33:36;;;;;;;14.32;6.97;;;;;;;8.03;100.00;101086.06;5051607;28;20048;-69
2022/11/10 05:36:04;;;;;;;16.45;6.78;;;;;;;8.02;100.00;101089.63;5032687;28;20076;-70
2022/11/10 05:38:31;;;;;;;14.75;7.53;;;;;;;7.99;100.00;101103.75;5035537;28;20048;-74
2022/11/10 05:40:58;;;;;;;13.20;6.78;;;;;;;7.97;100.00;101102.94;5049610;28;20389;-72
2022/11/10 05:43:25;;;;;;;15.60;7.82;;;;;;;7.94;100.00;101118.81;5053686;28;20048;-75
2022/11/10 05:45:56;;;;;;;15.57;7.10;;;;;;;7.90;100.00;101114.53;5032886;28;20071;-73
2022/11/10 05:48:22;;;;;;;20.92;7.57;;;;;;;7.89;100.00;101114.56;5037271;28;20041;-74
2022/11/10 05:50:49;;;;;;;12.85;6.47;;;;;;;7.85;100.00;101107.66;5053761;28;20052;-74
2022/11/10 05:53:15;;;;;;;16.05;6.90;;;;;;;7.90;100.00;101117.16;5049361;28;20706;-75
2022/11/10 05:55:43;;;;;;;12.75;6.63;;;;;;;7.93;100.00;101113.59;5042846;28;20053;-69
2022/11/10 05:58:09;;;;;;;17.63;6.43;;;;;;;8.02;100.00;101121.28;5039915;28;20049;-69
2022/11/10 06:00:36;;;;;;;15.20;7.35;;;;;;;8.05;100.00;101122.06;5041361;28;20159;-75
2022/11/10 06:03:06;;;;;;;15.00;7.45;;;;;;;8.06;100.00;101128.19;5050817;28;20048;-73
2022/11/10 06:05:34;;;;;;;;;;;;;;;8.05;100.00;101143.16;5045533;28;20072;-73
2022/11/10 06:08:02;;;;;;;16.55;7.80;;;;;;;8.02;100.00;101151.16;5037182;28;19924;-72
2022/11/10 06:10:30;;;;;;;15.85;7.30;;;;;;;8.04;100.00;101148.47;5050147;28;20067;-73
2022/11/10 06:12:56;;;;;;;16.85;7.97;;;;;;;8.02;100.00;101147.66;5053670;28;20048;-75
2022/11/10 06:15:23;;;;;;;21.27;7.32;;;;;;;7.95;100.00;101141.66;5040371;28;20055;-71
2022/11/10 06:17:51;;;;;;;17.00;7.95;;;;;;;8.07;100.00;101162.44;5036240;28;20235;-73
2022/11/10 06:20:18;;;;;;;14.55;7.57;;;;;;;8.07;100.00;101173.00;5045272;28;20049;-76
2022/11/10 06:23:02;;;;;;;19.52;8.43;;;;;;;8.04;100.00;101191.53;5052493;28;20049;-75
2022/11/10 06:25:30;;;;;;;21.73;9.20;;;;;;;8.00;100.00;101200.44;5042584;28;20068;-74
2022/11/10 06:27:58;;;;;;;14.07;8.50;;;;;;;8.00;100.00;101200.44;5037478;28;20453;-72
2022/11/10 06:30:26;;;;;;;15.57;9.35;;;;;;;7.96;100.00;101201.41;5041007;28;20123;-73
2022/11/10 06:32:53;;;;;;;23.40;10.38;;;;;;;8.00;100.00;101208.38;5043437;28;20068;-73
2022/11/10 06:35:21;;;;;;;16.23;9.82;;;;;;;7.99;100.00;101211.91;5046688;28;20124;-74
2022/11/10 06:38:10;;;;;;;22.45;10.80;;;;;;;8.01;100.00;101217.16;5038148;28;20127;-73
2022/11/10 06:40:37;;;;;;;20.80;10.38;;;;;;;7.89;100.00;101204.22;5045327;28;20037;-71
2022/11/10 06:43:04;;;;;;;22.33;10.40;;;;;;;8.06;100.00;101229.28;5043519;28;20057;-76
2022/11/10 06:45:30;;;;;;;22.95;10.45;;;;;;;8.13;100.00;101235.31;5042318;28;20053;-75
2022/11/10 06:48:05;;;;;;;17.90;10.20;;;;;;;8.18;100.00;101230.81;5034102;28;20044;-73
2022/11/10 06:50:32;;;;;;;21.00;9.82;;;;;;;8.26;100.00;101236.75;5042767;28;20046;-71
2022/11/10 06:53:00;;;;;;;19.25;10.27;;;;;;;8.28;100.00;101232.31;5043387;28;20084;-73
2022/11/10 06:55:27;;;;;;;20.25;9.80;;;;;;;8.30;100.00;101245.47;5045217;28;20134;-72
2022/11/10 06:57:54;;;;;;;24.20;10.40;;;;;;;8.32;100.00;101248.97;5038309;28;20091;-74
2022/11/10 07:00:21;;;;;;;21.48;10.35;;;;;;;8.34;100.00;101244.53;5044764;28;20136;-75
2022/11/10 07:02:56;;;;;;;24.13;9.60;;;;;;;8.39;100.00;101250.53;5034909;28;20064;-74
2022/11/10 07:05:23;;;;;;;16.02;8.80;;;;;;;8.38;100.00;101247.03;5043032;28;20037;-72
2022/11/10 07:07:50;;;;;;;14.77;9.27;;;;;;;8.44;100.00;101257.44;5036356;28;20055;-71
2022/11/10 07:10:17;;;;;;;20.42;9.35;;;;;;;8.60;100.00;101265.00;5042496;28;20406;-73
2022/11/10 07:12:43;;;;;;;20.75;9.48;;;;;;;8.62;100.00;101279.03;5047891;28;20099;-74
2022/11/10 07:15:10;;;;;;;20.40;9.65;;;;;;;8.54;100.00;101287.13;5040851;28;20065;-73
2022/11/10 07:17:40;;;;;;;20.33;9.73;;;;;;;8.46;100.00;101289.09;5034582;28;20049;-75
2022/11/10 07:20:07;;;;;;;19.50;10.63;;;;;;;8.42;100.00;101309.41;5045007;28;20124;-73
2022/11/10 07:22:34;;;;;;;20.15;10.63;;;;;;;8.40;100.00;101310.34;5048223;28;20045;-73
2022/11/10 07:25:00;;;;;;;23.35;10.45;;;;;;;8.32;100.00;101312.31;5052371;28;20069;-73
2022/11/10 07:27:27;;;;;;;23.90;10.88;;;;;;;8.23;100.00;101300.16;5035341;28;20042;-70
2022/11/10 07:29:53;;;;;;;20.63;11.10;;;;;;;8.33;100.00;101321.97;5039992;28;20049;-75
2022/11/10 07:32:20;;;;;;;22.15;11.32;;;;;;;8.33;100.00;101332.53;5044287;28;20067;-71
2022/11/10 07:34:46;;;;;;;20.95;11.15;;;;;;;8.31;100.00;101337.78;5047170;28;20080;-74
2022/11/10 07:37:13;;;;;;;21.50;11.95;;;;;;;8.35;100.00;101343.88;5037418;28;20041;-69
2022/11/10 07:39:40;;;;;;;21.20;11.88;;;;;;;8.41;100.00;101338.47;5038734;28;20063;-75
2022/11/10 07:42:07;;;;;;;18.92;10.80;;;;;;;8.33;100.00;101316.69;5047270;28;20059;-73
2022/11/10 07:44:33;;;;;;;23.60;11.38;;;;;;;8.52;100.00;101340.84;5039149;28;20435;-73
2022/11/10 07:47:00;;;;;;;21.75;12.00;;;;;;;8.59;100.00;101345.97;5031295;28;20485;-73
2022/11/10 07:49:26;;;;;;;20.73;10.65;;;;;;;8.60;100.00;101342.44;5033398;28;20063;-72
2022/11/10 07:51:53;;;;;;;23.95;11.70;;;;;;;8.47;100.00;101325.16;5038261;28;20499;-71
2022/11/10 07:54:20;;;;;;;18.27;11.00;;;;;;;8.60;100.00;101358.25;5056728;28;20144;-74
2022/11/10 07:56:46;;;;;;;18.70;10.90;;;;;;;8.60;100.00;101360.91;5046793;28;20152;-73
2022/11/10 07:59:13;;;;;;;19.08;11.05;;;;;;;8.66;100.00;101368.66;5034784;28;20141;-74
2022/11/10 08:01:39;;;;;;;22.60;10.65;;;;;;;8.78;100.00;101360.47;5041464;28;20065;-76
2022/11/10 08:04:06;;;;;;;19.98;11.30;;;;;;;8.94;100.00;101362.75;5055429;28;20408;-74
2022/11/10 08:06:33;;;;;;;17.60;10.70;;;;;;;9.09;100.00;101370.28;5042171;28;20386;-72
2022/11/10 08:09:02;;;;;;;18.10;10.88;;;;;;;9.13;100.00;101356.94;5037023;28;20061;-73
2022/11/10 08:11:28;;;;;;;23.77;11.07;;;;;;;9.15;100.00;101381.53;5035158;28;20144;-71
2022/11/10 08:14:00;;;;;;;23.13;11.20;;;;;;;9.08;100.00;101371.19;5047127;28;20049;-74
2022/11/10 08:16:27;;;;;;;22.50;11.40;;;;;;;9.05;100.00;101377.41;5041456;28;20045;-74
2022/11/10 08:18:53;;;;;;;24.52;11.25;;;;;;;9.08;100.00;101374.69;5028451;28;20131;-72
2022/11/10 08:21:20;;;;;;;20.88;11.82;;;;;;;9.26;100.00;101364.56;5042309;28;20806;-76
2022/11/10 08:23:46;;;;;;;19.58;10.95;;;;;;;9.42;100.00;101369.41;5033396;28;20068;-69
2022/11/10 08:26:15;;;;;;;17.83;10.82;;;;;;;9.52;100.00;101372.66;5040269;28;20559;-70
2022/11/10 08:28:43;;;;;;;20.05;10.82;;;;;;;9.53;100.00;101370.88;5024722;28;20057;-73
2022/11/10 08:31:09;;;;;;;18.90;10.82;;;;;;;9.63;100.00;101377.66;5034761;28;20050;-72
2022/11/10 08:33:36;;;;;;;18.70;10.55;;;;;;;9.66;100.00;101353.75;5037344;28;20045;-75
2022/11/10 08:36:02;;;;;;;21.25;10.80;;;;;;;9.82;100.00;101371.81;5043051;28;20059;-71
2022/11/10 08:38:29;;;;;;;19.60;11.07;;;;;;;9.79;100.00;101369.25;5031591;28;20049;-76
2022/11/10 08:40:56;;;;;;;20.38;10.35;;;;;;;9.89;100.00;101377.81;5036813;28;20724;-73
2022/11/10 08:43:23;;;;;;;22.05;10.75;;;;;;;9.88;100.00;101380.50;5045116;28;20052;-75
2022/11/10 08:45:54;;;;;;;23.00;11.00;;;;;;;9.72;100.00;101364.19;5039119;28;20041;-73
2022/11/10 08:48:21;;;;;;;20.90;10.27;;;;;;;9.68;100.00;101365.16;5037723;28;20536;-76
2022/11/10 08:50:49;;;;;;;20.25;11.13;;;;;;;9.80;100.00;101384.22;5040951;28;20461;-74
2022/11/10 08:53:22;;;;;;;18.30;9.80;;;;;;;9.80;100.00;101388.63;5045435;28;20487;-70
2022/11/10 08:55:50;;;;;;;18.48;9.45;;;;;;;9.84;100.00;101395.56;5037305;28;20056;-75
2022/11/10 08:58:21;;;;;;;17.60;9.35;;;;;;;9.77;100.00;101384.28;5038564;28;20478;-75
2022/11/10 09:00:49;;;;;;;16.55;8.57;;;;;;;9.81;100.00;101393.00;5039903;28;20141;-75
2022/11/10 09:03:21;;;;;;;17.15;8.52;;;;;;;9.85;100.00;101402.59;5050111;28;20552;-71
2022/11/10 09:05:49;;;;;;;15.07;9.10;;;;;;;9.80;100.00;101417.72;5049742;28;20091;-76
2022/11/10 09:08:23;;;;;;;21.50;9.15;;;;;;;9.77;100.00;101416.03;5034943;28;20045;-72
2022/11/10 09:10:50;;;;;;;19.63;9.95;;;;;;;9.85;100.00;101426.41;5052292;28;20068;-73
2022/11/10 09:13:17;;;;;;;19.95;9.65;;;;;;;9.96;100.00;101424.31;5054620;28;20556;-73
2022/11/10 09:15:46;;;;;;;26.50;10.00;;;;;;;10.12;100.00;101424.75;5039676;28;20055;-73
2022/11/10 09:18:14;;;;;;;14.82;9.23;;;;;;;10.28;100.00;101427.88;5032499;28;20139;-75
2022/11/10 09:20:41;;;;;;;21.17;8.88;;;;;;;10.49;100.00;101437.84;5039894;28;20067;-72
2022/11/10 09:23:16;;;;;;;23.00;8.35;;;;;;;10.62;100.00;101441.84;5045576;28;20068;-73
2022/11/10 09:25:48;;;;;;;18.85;8.30;;;;;;;10.80;100.00;101433.31;5046443;28;20137;-75
2022/11/10 09:28:15;;;;;;;17.15;6.85;;;;;;;10.81;100.00;101440.38;5046395;28;20052;-73
2022/11/10 09:30:45;;;;;;;19.83;7.30;;;;;;;10.65;100.00;101428.50;5031928;28;20049;-73
2022/11/10 09:33:12;;;;;;;14.70;7.38;;;;;;;10.60;100.00;101414.53;5037066;28;20037;-76
2022/11/10 09:35:39;;;;;;;17.33;7.05;;;;;;;10.79;100.00;101459.88;5046974;28;20049;-75
2022/11/10 09:38:06;;;;;;;18.30;7.00;;;;;;;10.51;100.00;101438.66;5036721;28;20041;-75
2022/11/10 09:40:50;;;;;;;13.70;7.15;;;;;;;10.51;100.00;101462.50;5041444;28;20069;-74
2022/11/10 09:43:38;;;;;;;13.52;6.18;;;;;;;10.53;100.00;101460.66;5043910;28;20076;-75
2022/11/10 09:46:36;;;;;;;16.73;7.32;;;;;;;10.66;100.00;101472.63;5032676;28;20129;-74
2022/11/10 09:49:24;;;;;;;14.15;6.07;;;;;;;10.89;100.00;101472.78;5026621;28;20045;-74
2022/11/10 09:51:52;;;;;;;15.07;6.45;;;;;;;11.02;100.00;101475.06;5036579;28;20049;-73
2022/11/10 09:54:21;;;;;;;13.10;5.40;;;;;;;11.13;100.00;101471.16;5031428;28;20049;-73
2022/11/10 09:56:52;;;;;;;12.68;5.65;;;;;;;11.27;100.00;101483.09;5037966;28;20131;-69
2022/11/10 09:59:23;;;;;;;;;;;;;;;11.24;100.00;101484.91;5031366;28;20144;-73
2022/11/10 10:01:53;;;;;;;11.07;4.95;;;;;;;11.19;100.00;101494.78;5043443;28;20364;-73
2022/11/10 10:04:39;;;;;;;11.90;5.20;;;;;;;10.93;100.00;101477.97;5045597;28;20056;-78
2022/11/10 10:07:25;;;;;;;14.40;5.55;;;;;;;10.92;100.00;101489.50;5039523;28;20507;-72
2022/11/10 10:10:02;;;;;;;15.95;5.78;;;;;;;10.86;100.00;101507.31;5033377;28;20048;-73
2022/11/10 10:13:12;;;;;;;11.80;4.68;;;;;;;11.03;100.00;101503.28;5041975;28;20095;-71
2022/11/10 10:15:58;;;;;;;17.30;4.82;;;;;;;11.19;100.00;101504.53;5040540;28;20045;-74
2022/11/10 10:18:49;;;;;;;16.95;4.82;;;;;;;11.20;100.00;101507.13;5022883;28;20765;-71
2022/11/10 10:21:44;;;;;;;9.85;4.75;;;;;;;11.16;100.00;101505.53;5040585;28;20443;-71
2022/11/10 10:24:14;;;;;;;10.07;4.20;;;;;;;11.02;100.00;101488.31;5036595;28;20587;-69
2022/11/10 10:26:53;;;;;;;12.95;4.38;;;;;;;11.20;100.00;101508.91;5039747;28;20056;-72
2022/11/10 10:29:44;;;;;;;12.13;3.88;;;;;;;11.43;100.00;101510.84;5025396;28;20132;-72
2022/11/10 10:32:13;;;;;;;12.23;4.40;;;;;;;11.51;100.00;101482.25;5034546;28;20131;-72
2022/11/10 10:34:40;;;;;;;12.35;3.83;;;;;;;11.90;100.00;101509.28;5039736;28;20048;-74
2022/11/10 10:37:22;;;;;;;9.10;3.80;;;;;;;12.13;100.00;101496.03;5038070;28;20056;-74
2022/11/10 10:39:53;;;;;;;10.13;3.70;;;;;;;12.52;100.00;101501.69;5038346;28;20082;-72
2022/11/10 10:42:26;;;;;;;11.32;3.63;;;;;;;12.73;100.00;101489.38;5042750;28;20048;-73
2022/11/10 10:45:19;;;;;;;11.95;4.30;;;;;;;12.93;100.00;101499.22;5043949;28;20151;-75
2022/11/10 10:47:49;;;;;;;8.93;4.22;;;;;;;12.98;100.00;101508.75;5041149;28;20049;-72
2022/11/10 10:50:23;;;;;;;12.70;4.20;;;;;;;12.89;100.00;101495.84;5040726;28;20518;-72
2022/11/10 10:53:19;;;;;;;13.07;4.40;;;;;;;12.89;100.00;101502.97;5040848;28;20061;-71
2022/11/10 10:55:50;;;;;;;8.50;4.07;;;;;;;12.68;100.00;101501.13;5045714;28;20041;-71
2022/11/10 10:58:29;;;;;;;12.93;4.10;;;;;;;12.59;100.00;101505.84;5036711;28;20106;-75
2022/11/10 11:01:13;;;;;;;15.10;4.07;;;;;;;12.53;100.00;101505.22;5035097;28;20045;-74
2022/11/10 11:03:51;;;;;;;15.27;4.18;;;;;;;12.41;100.00;101500.38;5039280;28;20143;-71
2022/11/10 11:06:25;;;;;;;11.77;4.75;;;;;;;12.49;100.00;101503.59;5035285;28;20047;-71
2022/11/10 11:09:16;;;;;;;11.35;4.28;;;;;;;12.44;100.00;101508.19;5029295;28;20166;-74
2022/11/10 11:11:45;;;;;;;11.77;4.00;;;;;;;12.40;100.00;101506.59;5035481;28;20084;-74
2022/11/10 11:14:18;;;;;;;11.38;4.40;;;;;;;12.38;100.00;101516.41;5033267;28;20134;-75
2022/11/10 11:16:51;;;;;;;12.55;4.18;;;;;;;12.21;100.00;101507.25;5033825;28;20152;-71
2022/11/10 11:19:21;;;;;;;9.65;4.07;;;;;;;12.11;100.00;101507.66;5032028;28;20045;-73
2022/11/10 11:22:27;;;;;;;13.35;4.85;;;;;;;12.10;100.00;101516.53;5036237;28;20091;-73
2022/11/10 11:25:18;;;;;;;12.40;4.15;;;;;;;11.98;100.00;101495.72;5036366;28;20060;-72
2022/11/10 11:28:02;;;;;;;13.80;3.92;;;;;;;12.19;100.00;101517.06;5039024;28;20092;-70
2022/11/10 11:30:46;;;;;;;13.07;4.47;;;;;;;12.21;100.00;101528.50;5029128;28;20047;-72
2022/11/10 11:33:34;;;;;;;16.48;4.28;;;;;;;12.28;100.00;101522.03;5043585;28;20132;-72
2022/11/10 11:36:22;;;;;;;16.00;6.07;;;;;;;12.44;100.00;101518.81;5028922;28;20854;-72
2022/11/10 11:39:03;;;;;;;12.82;4.68;;;;;;;12.58;100.00;101524.53;5042238;28;20063;-73
2022/11/10 11:41:45;;;;;;;13.93;4.22;;;;;;;12.46;100.00;101506.34;5032660;28;20062;-73
2022/11/10 11:44:25;;;;;;;10.70;3.75;;;;;;;12.63;100.00;101518.09;5033374;28;20060;-75